sensor_id;sensor_type;location;lat;lon;timestamp;pressure;altitude;pressure_sealevel;temperature;humidity
3254;BME280;1639;42.804;23.342;2024-03-02T00:01:50;73059.16;;;-148.52;100.00
3254;BME280;1639;42.804;23.342;2024-03-02T00:04:16;73046.75;;;-148.52;100.00
3254;BME280;1639;42.804;23.342;2024-03-02T00:06:42;73046.75;;;-148.52;100.00
3254;BME280;1639;42.804;23.342;2024-03-02T00:09:09;73048.81;;;-148.52;100.00
3254;BME280;1639;42.804;23.342;2024-03-02T00:11:37;73050.88;;;-148.52;100.00
3254;BME280;1639;42.804;23.342;2024-03-02T00:14:04;73057.09;;;-148.52;100.00
3254;BME280;1639;42.804;23.342;2024-03-02T00:16:32;73071.56;;;-148.52;100.00
3254;BME280;1639;42.804;23.342;2024-03-02T00:19:05;73065.34;;;-148.52;100.00
3254;BME280;1639;42.804;23.342;2024-03-02T00:21:31;73057.09;;;-148.52;100.00
3254;BME280;1639;42.804;23.342;2024-03-02T00:23:57;73071.56;;;-148.52;100.00
3254;BME280;1639;42.804;23.342;2024-03-02T00:26:23;73071.56;;;-148.52;100.00
3254;BME280;1639;42.804;23.342;2024-03-02T00:28:48;73069.50;;;-148.52;100.00
3254;BME280;1639;42.804;23.342;2024-03-02T00:31:15;73059.16;;;-148.52;100.00
3254;BME280;1639;42.804;23.342;2024-03-02T00:33:49;73071.56;;;-148.52;100.00
3254;BME280;1639;42.804;23.342;2024-03-02T00:36:22;73065.34;;;-148.52;100.00
3254;BME280;1639;42.804;23.342;2024-03-02T00:38:50;73065.34;;;-148.52;100.00
3254;BME280;1639;42.804;23.342;2024-03-02T00:41:20;73052.94;;;-148.52;100.00
3254;BME280;1639;42.804;23.342;2024-03-02T00:46:20;73042.59;;;-148.52;100.00
3254;BME280;1639;42.804;23.342;2024-03-02T00:48:54;73057.09;;;-148.52;100.00
3254;BME280;1639;42.804;23.342;2024-03-02T00:51:22;73038.47;;;-148.52;100.00
3254;BME280;1639;42.804;23.342;2024-03-02T00:53:48;73036.41;;;-148.52;100.00
3254;BME280;1639;42.804;23.342;2024-03-02T00:56:13;73038.47;;;-148.52;100.00
3254;BME280;1639;42.804;23.342;2024-03-02T00:58:39;73038.47;;;-148.52;100.00
3254;BME280;1639;42.804;23.342;2024-03-02T01:01:05;73036.41;;;-148.52;100.00
3254;BME280;1639;42.804;23.342;2024-03-02T01:03:32;73017.78;;;-148.52;100.00
3254;BME280;1639;42.804;23.342;2024-03-02T01:05:58;73028.13;;;-148.52;100.00
3254;BME280;1639;42.804;23.342;2024-03-02T01:08:23;73030.19;;;-148.52;100.00
3254;BME280;1639;42.804;23.342;2024-03-02T01:10:49;73009.50;;;-148.52;100.00
3254;BME280;1639;42.804;23.342;2024-03-02T01:13:14;73019.84;;;-148.52;100.00
3254;BME280;1639;42.804;23.342;2024-03-02T01:15:40;73009.50;;;-148.52;100.00
3254;BME280;1639;42.804;23.342;2024-03-02T01:18:05;73005.38;;;-148.52;100.00
3254;BME280;1639;42.804;23.342;2024-03-02T01:20:31;73011.56;;;-148.52;100.00
3254;BME280;1639;42.804;23.342;2024-03-02T01:22:56;73001.25;;;-148.52;100.00
3254;BME280;1639;42.804;23.342;2024-03-02T01:25:22;72992.97;;;-148.52;100.00
3254;BME280;1639;42.804;23.342;2024-03-02T01:27:47;72995.03;;;-148.52;100.00
3254;BME280;1639;42.804;23.342;2024-03-02T01:30:12;72984.69;;;-148.52;100.00
3254;BME280;1639;42.804;23.342;2024-03-02T01:32:38;72995.03;;;-148.52;100.00
3254;BME280;1639;42.804;23.342;2024-03-02T01:35:04;72990.91;;;-148.52;100.00
3254;BME280;1639;42.804;23.342;2024-03-02T01:37:30;73009.50;;;-148.52;100.00
3254;BME280;1639;42.804;23.342;2024-03-02T01:39:55;73009.50;;;-148.52;100.00
3254;BME280;1639;42.804;23.342;2024-03-02T01:42:21;72999.16;;;-148.52;100.00
3254;BME280;1639;42.804;23.342;2024-03-02T01:44:47;72980.56;;;-148.52;100.00
3254;BME280;1639;42.804;23.342;2024-03-02T01:47:13;72970.22;;;-148.52;100.00
3254;BME280;1639;42.804;23.342;2024-03-02T01:49:38;72972.28;;;-148.52;100.00
3254;BME280;1639;42.804;23.342;2024-03-02T01:52:04;72959.88;;;-148.52;100.00
3254;BME280;1639;42.804;23.342;2024-03-02T01:54:29;72943.31;;;-148.52;100.00
3254;BME280;1639;42.804;23.342;2024-03-02T01:56:55;72974.34;;;-148.52;100.00
3254;BME280;1639;42.804;23.342;2024-03-02T01:59:20;72974.34;;;-148.52;100.00
3254;BME280;1639;42.804;23.342;2024-03-02T02:01:46;72951.59;;;-148.52;100.00
3254;BME280;1639;42.804;23.342;2024-03-02T02:04:11;72949.53;;;-148.52;100.00
3254;BME280;1639;42.804;23.342;2024-03-02T02:06:36;72945.41;;;-148.52;100.00
3254;BME280;1639;42.804;23.342;2024-03-02T02:09:02;72943.31;;;-148.52;100.00
3254;BME280;1639;42.804;23.342;2024-03-02T02:11:27;72945.41;;;-148.52;100.00
3254;BME280;1639;42.804;23.342;2024-03-02T02:13:56;72959.88;;;-148.52;100.00
3254;BME280;1639;42.804;23.342;2024-03-02T02:16:21;72968.16;;;-148.52;100.00
3254;BME280;1639;42.804;23.342;2024-03-02T02:18:46;72972.28;;;-148.52;100.00
3254;BME280;1639;42.804;23.342;2024-03-02T02:21:12;72974.34;;;-148.52;100.00
3254;BME280;1639;42.804;23.342;2024-03-02T02:23:37;72982.63;;;-148.52;100.00
3254;BME280;1639;42.804;23.342;2024-03-02T02:26:03;72990.91;;;-148.52;100.00
3254;BME280;1639;42.804;23.342;2024-03-02T02:28:29;72974.34;;;-148.52;100.00
3254;BME280;1639;42.804;23.342;2024-03-02T02:30:55;72972.28;;;-148.52;100.00
3254;BME280;1639;42.804;23.342;2024-03-02T02:33:21;72988.81;;;-148.52;100.00
3254;BME280;1639;42.804;23.342;2024-03-02T02:35:47;72992.97;;;-148.52;100.00
3254;BME280;1639;42.804;23.342;2024-03-02T02:38:12;72988.81;;;-148.52;100.00
3254;BME280;1639;42.804;23.342;2024-03-02T02:40:38;72976.41;;;-148.52;100.00
3254;BME280;1639;42.804;23.342;2024-03-02T02:43:03;72976.41;;;-148.52;100.00
3254;BME280;1639;42.804;23.342;2024-03-02T02:45:29;72982.63;;;-148.52;100.00
3254;BME280;1639;42.804;23.342;2024-03-02T02:47:54;72984.69;;;-148.52;100.00
3254;BME280;1639;42.804;23.342;2024-03-02T02:50:19;72999.16;;;-148.52;100.00
3254;BME280;1639;42.804;23.342;2024-03-02T02:52:45;72999.16;;;-148.52;100.00
3254;BME280;1639;42.804;23.342;2024-03-02T02:55:12;73013.66;;;-148.52;100.00
3254;BME280;1639;42.804;23.342;2024-03-02T02:57:40;73001.25;;;-148.52;100.00
3254;BME280;1639;42.804;23.342;2024-03-02T03:00:08;72997.09;;;-148.52;100.00
3254;BME280;1639;42.804;23.342;2024-03-02T03:02:42;72997.09;;;-148.52;100.00
3254;BME280;1639;42.804;23.342;2024-03-02T03:05:09;72992.97;;;-148.52;100.00
3254;BME280;1639;42.804;23.342;2024-03-02T03:07:35;72997.09;;;-148.52;100.00
3254;BME280;1639;42.804;23.342;2024-03-02T03:10:02;72972.28;;;-148.52;100.00
3254;BME280;1639;42.804;23.342;2024-03-02T03:12:29;72980.56;;;-148.52;100.00
3254;BME280;1639;42.804;23.342;2024-03-02T03:14:55;72968.16;;;-148.52;100.00
3254;BME280;1639;42.804;23.342;2024-03-02T03:17:21;72995.03;;;-148.52;100.00
3254;BME280;1639;42.804;23.342;2024-03-02T03:19:47;72968.16;;;-148.52;100.00
3254;BME280;1639;42.804;23.342;2024-03-02T03:22:12;72997.09;;;-148.52;100.00
3254;BME280;1639;42.804;23.342;2024-03-02T03:24:38;72986.75;;;-148.52;100.00
3254;BME280;1639;42.804;23.342;2024-03-02T03:27:03;72974.34;;;-148.52;100.00
3254;BME280;1639;42.804;23.342;2024-03-02T03:29:29;72968.16;;;-148.52;100.00
3254;BME280;1639;42.804;23.342;2024-03-02T03:31:54;72964.00;;;-148.52;100.00
3254;BME280;1639;42.804;23.342;2024-03-02T03:34:19;72964.00;;;-148.52;100.00
3254;BME280;1639;42.804;23.342;2024-03-02T03:36:45;72976.41;;;-148.52;100.00
3254;BME280;1639;42.804;23.342;2024-03-02T03:39:10;72964.00;;;-148.52;100.00
3254;BME280;1639;42.804;23.342;2024-03-02T03:41:36;72992.97;;;-148.52;100.00
3254;BME280;1639;42.804;23.342;2024-03-02T03:44:01;72980.56;;;-148.52;100.00
3254;BME280;1639;42.804;23.342;2024-03-02T03:46:27;73013.66;;;-148.52;100.00
3254;BME280;1639;42.804;23.342;2024-03-02T03:48:52;72997.09;;;-148.52;100.00
3254;BME280;1639;42.804;23.342;2024-03-02T03:51:17;72980.56;;;-148.52;100.00
3254;BME280;1639;42.804;23.342;2024-03-02T03:53:43;73009.50;;;-148.52;100.00
3254;BME280;1639;42.804;23.342;2024-03-02T03:56:08;72999.16;;;-148.52;100.00
3254;BME280;1639;42.804;23.342;2024-03-02T03:58:33;72997.09;;;-148.52;100.00
3254;BME280;1639;42.804;23.342;2024-03-02T04:00:59;72980.56;;;-148.52;100.00
3254;BME280;1639;42.804;23.342;2024-03-02T04:03:24;72980.56;;;-148.52;100.00
3254;BME280;1639;42.804;23.342;2024-03-02T04:05:50;73001.25;;;-148.52;100.00
3254;BME280;1639;42.804;23.342;2024-03-02T04:08:16;72990.91;;;-148.52;100.00
3254;BME280;1639;42.804;23.342;2024-03-02T04:10:41;73015.72;;;-148.52;100.00
3254;BME280;1639;42.804;23.342;2024-03-02T04:13:07;72992.97;;;-148.52;100.00
3254;BME280;1639;42.804;23.342;2024-03-02T04:15:32;72995.03;;;-148.52;100.00
3254;BME280;1639;42.804;23.342;2024-03-02T04:17:58;72992.97;;;-148.52;100.00
3254;BME280;1639;42.804;23.342;2024-03-02T04:20:23;72980.56;;;-148.52;100.00
3254;BME280;1639;42.804;23.342;2024-03-02T04:22:49;72978.50;;;-148.52;100.00
3254;BME280;1639;42.804;23.342;2024-03-02T04:25:14;72997.09;;;-148.52;100.00
3254;BME280;1639;42.804;23.342;2024-03-02T04:27:39;72992.97;;;-148.52;100.00
3254;BME280;1639;42.804;23.342;2024-03-02T04:30:05;72992.97;;;-148.52;100.00
3254;BME280;1639;42.804;23.342;2024-03-02T04:32:31;73015.72;;;-148.52;100.00
3254;BME280;1639;42.804;23.342;2024-03-02T04:34:56;72999.16;;;-148.52;100.00
3254;BME280;1639;42.804;23.342;2024-03-02T04:37:22;72990.91;;;-148.52;100.00
3254;BME280;1639;42.804;23.342;2024-03-02T04:39:47;72999.16;;;-148.52;100.00
3254;BME280;1639;42.804;23.342;2024-03-02T04:42:13;72982.63;;;-148.52;100.00
3254;BME280;1639;42.804;23.342;2024-03-02T04:44:38;72992.97;;;-148.52;100.00
3254;BME280;1639;42.804;23.342;2024-03-02T04:47:04;72997.09;;;-148.52;100.00
3254;BME280;1639;42.804;23.342;2024-03-02T04:49:30;72997.09;;;-148.52;100.00
3254;BME280;1639;42.804;23.342;2024-03-02T04:51:55;72999.16;;;-148.52;100.00
3254;BME280;1639;42.804;23.342;2024-03-02T04:54:22;72997.09;;;-148.52;100.00
3254;BME280;1639;42.804;23.342;2024-03-02T04:56:47;73003.31;;;-148.52;100.00
3254;BME280;1639;42.804;23.342;2024-03-02T04:59:16;72999.16;;;-148.52;100.00
3254;BME280;1639;42.804;23.342;2024-03-02T05:01:42;72995.03;;;-148.52;100.00
3254;BME280;1639;42.804;23.342;2024-03-02T05:04:07;72995.03;;;-148.52;100.00
3254;BME280;1639;42.804;23.342;2024-03-02T05:06:33;72986.75;;;-148.52;100.00
3254;BME280;1639;42.804;23.342;2024-03-02T05:08:58;73005.38;;;-148.52;100.00
3254;BME280;1639;42.804;23.342;2024-03-02T05:11:24;73009.50;;;-148.52;100.00
3254;BME280;1639;42.804;23.342;2024-03-02T05:14:05;72992.97;;;-148.52;100.00
3254;BME280;1639;42.804;23.342;2024-03-02T05:16:34;73001.25;;;-148.52;100.00
3254;BME280;1639;42.804;23.342;2024-03-02T05:19:00;73017.78;;;-148.52;100.00
3254;BME280;1639;42.804;23.342;2024-03-02T05:21:26;73001.25;;;-148.52;100.00
3254;BME280;1639;42.804;23.342;2024-03-02T05:23:51;73005.38;;;-148.52;100.00
3254;BME280;1639;42.804;23.342;2024-03-02T05:26:16;73024.00;;;-148.52;100.00
3254;BME280;1639;42.804;23.342;2024-03-02T05:28:42;73021.91;;;-148.52;100.00
3254;BME280;1639;42.804;23.342;2024-03-02T05:31:10;73017.78;;;-148.52;100.00
3254;BME280;1639;42.804;23.342;2024-03-02T05:33:39;73034.34;;;-148.52;100.00
3254;BME280;1639;42.804;23.342;2024-03-02T05:36:05;73050.88;;;-148.52;100.00
3254;BME280;1639;42.804;23.342;2024-03-02T05:38:31;73044.66;;;-148.52;100.00
3254;BME280;1639;42.804;23.342;2024-03-02T05:40:56;73034.34;;;-148.52;100.00
3254;BME280;1639;42.804;23.342;2024-03-02T05:43:22;73059.16;;;-148.52;100.00
3254;BME280;1639;42.804;23.342;2024-03-02T05:45:47;73059.16;;;-148.52;100.00
3254;BME280;1639;42.804;23.342;2024-03-02T05:48:12;73067.41;;;-148.52;100.00
3254;BME280;1639;42.804;23.342;2024-03-02T05:50:38;73065.34;;;-148.52;100.00
3254;BME280;1639;42.804;23.342;2024-03-02T05:53:03;73067.41;;;-148.52;100.00
3254;BME280;1639;42.804;23.342;2024-03-02T05:55:29;73063.28;;;-148.52;100.00
3254;BME280;1639;42.804;23.342;2024-03-02T05:57:54;73065.34;;;-148.52;100.00
3254;BME280;1639;42.804;23.342;2024-03-02T06:00:32;73046.75;;;-148.52;100.00
3254;BME280;1639;42.804;23.342;2024-03-02T06:02:57;73050.88;;;-148.52;100.00
3254;BME280;1639;42.804;23.342;2024-03-02T06:05:23;73067.41;;;-148.52;100.00
3254;BME280;1639;42.804;23.342;2024-03-02T06:07:48;73079.84;;;-148.52;100.00
3254;BME280;1639;42.804;23.342;2024-03-02T06:10:14;73073.63;;;-148.52;100.00
3254;BME280;1639;42.804;23.342;2024-03-02T06:12:39;73081.91;;;-148.52;100.00
3254;BME280;1639;42.804;23.342;2024-03-02T06:15:05;73083.97;;;-148.52;100.00
3254;BME280;1639;42.804;23.342;2024-03-02T06:17:31;73079.84;;;-148.52;100.00
3254;BME280;1639;42.804;23.342;2024-03-02T06:19:56;73075.69;;;-148.52;100.00
3254;BME280;1639;42.804;23.342;2024-03-02T06:22:21;73077.75;;;-148.52;100.00
3254;BME280;1639;42.804;23.342;2024-03-02T06:24:50;73083.97;;;-148.52;100.00
3254;BME280;1639;42.804;23.342;2024-03-02T06:27:15;73077.75;;;-148.52;100.00
3254;BME280;1639;42.804;23.342;2024-03-02T06:29:40;73083.97;;;-148.52;100.00
3254;BME280;1639;42.804;23.342;2024-03-02T06:32:06;73071.56;;;-148.52;100.00
3254;BME280;1639;42.804;23.342;2024-03-02T06:34:31;73083.97;;;-148.52;100.00
3254;BME280;1639;42.804;23.342;2024-03-02T06:36:57;73077.75;;;-148.52;100.00
3254;BME280;1639;42.804;23.342;2024-03-02T06:39:22;73073.63;;;-148.52;100.00
3254;BME280;1639;42.804;23.342;2024-03-02T06:41:47;73069.50;;;-148.52;100.00
3254;BME280;1639;42.804;23.342;2024-03-02T06:44:13;73083.97;;;-148.52;100.00
3254;BME280;1639;42.804;23.342;2024-03-02T06:46:38;73067.41;;;-148.52;100.00
3254;BME280;1639;42.804;23.342;2024-03-02T06:49:04;73075.69;;;-148.52;100.00
3254;BME280;1639;42.804;23.342;2024-03-02T06:51:30;73071.56;;;-148.52;100.00
3254;BME280;1639;42.804;23.342;2024-03-02T06:53:55;73071.56;;;-148.52;100.00
3254;BME280;1639;42.804;23.342;2024-03-02T06:56:21;73088.09;;;-148.52;100.00
3254;BME280;1639;42.804;23.342;2024-03-02T06:58:46;73081.91;;;-148.52;100.00
3254;BME280;1639;42.804;23.342;2024-03-02T07:01:12;73067.41;;;-148.52;100.00
3254;BME280;1639;42.804;23.342;2024-03-02T07:03:38;73052.94;;;-148.52;100.00
3254;BME280;1639;42.804;23.342;2024-03-02T07:06:05;73088.09;;;-148.52;100.00
3254;BME280;1639;42.804;23.342;2024-03-02T07:08:30;73100.50;;;-148.52;100.00
3254;BME280;1639;42.804;23.342;2024-03-02T07:10:56;73077.75;;;-148.52;100.00
3254;BME280;1639;42.804;23.342;2024-03-02T07:13:22;73092.25;;;-148.52;100.00
3254;BME280;1639;42.804;23.342;2024-03-02T07:15:47;73090.16;;;-148.52;100.00
3254;BME280;1639;42.804;23.342;2024-03-02T07:18:36;73094.31;;;-148.52;100.00
3254;BME280;1639;42.804;23.342;2024-03-02T07:21:09;73079.84;;;-148.52;100.00
3254;BME280;1639;42.804;23.342;2024-03-02T07:23:34;73086.03;;;-148.52;100.00
3254;BME280;1639;42.804;23.342;2024-03-02T07:26:00;73086.03;;;-148.52;100.00
3254;BME280;1639;42.804;23.342;2024-03-02T07:28:27;73069.50;;;-148.52;100.00
3254;BME280;1639;42.804;23.342;2024-03-02T07:33:24;73092.25;;;-148.52;100.00
3254;BME280;1639;42.804;23.342;2024-03-02T07:35:49;73063.28;;;-148.52;100.00
3254;BME280;1639;42.804;23.342;2024-03-02T07:38:15;73055.00;;;-148.52;100.00
3254;BME280;1639;42.804;23.342;2024-03-02T07:40:40;73050.88;;;-148.52;100.00
3254;BME280;1639;42.804;23.342;2024-03-02T07:43:06;73057.09;;;-148.52;100.00
3254;BME280;1639;42.804;23.342;2024-03-02T07:45:31;73065.34;;;-148.52;100.00
3254;BME280;1639;42.804;23.342;2024-03-02T07:47:56;73052.94;;;-148.52;100.00
3254;BME280;1639;42.804;23.342;2024-03-02T07:50:22;73042.59;;;-148.52;100.00
3254;BME280;1639;42.804;23.342;2024-03-02T07:52:48;73050.88;;;-148.52;100.00
3254;BME280;1639;42.804;23.342;2024-03-02T07:55:13;73030.19;;;-148.52;100.00
3254;BME280;1639;42.804;23.342;2024-03-02T07:57:38;73063.28;;;-148.52;100.00
3254;BME280;1639;42.804;23.342;2024-03-02T08:00:04;73067.41;;;-148.52;100.00
3254;BME280;1639;42.804;23.342;2024-03-02T08:02:30;73059.16;;;-148.52;100.00
3254;BME280;1639;42.804;23.342;2024-03-02T08:04:55;73036.41;;;-148.52;100.00
3254;BME280;1639;42.804;23.342;2024-03-02T08:07:21;73021.91;;;-148.52;100.00
3254;BME280;1639;42.804;23.342;2024-03-02T08:09:46;73013.66;;;-148.52;100.00
3254;BME280;1639;42.804;23.342;2024-03-02T08:12:11;73007.44;;;-148.52;100.00
3254;BME280;1639;42.804;23.342;2024-03-02T08:14:37;73005.38;;;-148.52;100.00
3254;BME280;1639;42.804;23.342;2024-03-02T08:17:02;73013.66;;;-148.52;100.00
3254;BME280;1639;42.804;23.342;2024-03-02T08:19:28;73036.41;;;-148.52;100.00
3254;BME280;1639;42.804;23.342;2024-03-02T08:21:53;73028.13;;;-148.52;100.00
3254;BME280;1639;42.804;23.342;2024-03-02T08:24:19;73028.13;;;-148.52;100.00
3254;BME280;1639;42.804;23.342;2024-03-02T08:26:44;73038.47;;;-148.52;100.00
3254;BME280;1639;42.804;23.342;2024-03-02T08:29:09;73030.19;;;-148.52;100.00
3254;BME280;1639;42.804;23.342;2024-03-02T08:31:35;73021.91;;;-148.52;100.00
3254;BME280;1639;42.804;23.342;2024-03-02T08:34:00;73017.78;;;-148.52;100.00
3254;BME280;1639;42.804;23.342;2024-03-02T08:36:26;73003.31;;;-148.52;100.00
3254;BME280;1639;42.804;23.342;2024-03-02T08:38:51;73007.44;;;-148.52;100.00
3254;BME280;1639;42.804;23.342;2024-03-02T08:41:17;72997.09;;;-148.52;100.00
3254;BME280;1639;42.804;23.342;2024-03-02T08:43:42;72997.09;;;-148.52;100.00
3254;BME280;1639;42.804;23.342;2024-03-02T08:46:08;72997.09;;;-148.52;100.00
3254;BME280;1639;42.804;23.342;2024-03-02T08:48:34;72997.09;;;-148.52;100.00
3254;BME280;1639;42.804;23.342;2024-03-02T08:50:59;72997.09;;;-148.52;100.00
3254;BME280;1639;42.804;23.342;2024-03-02T08:53:25;73013.66;;;-148.52;100.00
3254;BME280;1639;42.804;23.342;2024-03-02T08:55:50;73005.38;;;-148.52;100.00
3254;BME280;1639;42.804;23.342;2024-03-02T08:58:15;73007.44;;;-148.52;100.00
3254;BME280;1639;42.804;23.342;2024-03-02T09:00:41;73001.25;;;-148.52;100.00
3254;BME280;1639;42.804;23.342;2024-03-02T09:03:07;73017.78;;;-148.52;100.00
3254;BME280;1639;42.804;23.342;2024-03-02T09:05:32;73015.72;;;-148.52;100.00
3254;BME280;1639;42.804;23.342;2024-03-02T09:07:58;73034.34;;;-148.52;100.00
3254;BME280;1639;42.804;23.342;2024-03-02T09:10:23;73007.44;;;-148.52;100.00
3254;BME280;1639;42.804;23.342;2024-03-02T09:12:48;73013.66;;;-148.52;100.00
3254;BME280;1639;42.804;23.342;2024-03-02T09:15:14;73013.66;;;-148.52;100.00
3254;BME280;1639;42.804;23.342;2024-03-02T09:17:39;73013.66;;;-148.52;100.00
3254;BME280;1639;42.804;23.342;2024-03-02T09:20:05;73011.56;;;-148.52;100.00
3254;BME280;1639;42.804;23.342;2024-03-02T09:22:31;73001.25;;;-148.52;100.00
3254;BME280;1639;42.804;23.342;2024-03-02T09:24:57;73005.38;;;-148.52;100.00
3254;BME280;1639;42.804;23.342;2024-03-02T09:27:23;73009.50;;;-148.52;100.00
3254;BME280;1639;42.804;23.342;2024-03-02T09:29:48;72995.03;;;-148.52;100.00
3254;BME280;1639;42.804;23.342;2024-03-02T09:32:14;72992.97;;;-148.52;100.00
3254;BME280;1639;42.804;23.342;2024-03-02T09:34:39;72990.91;;;-148.52;100.00
3254;BME280;1639;42.804;23.342;2024-03-02T09:37:05;72980.56;;;-148.52;100.00
3254;BME280;1639;42.804;23.342;2024-03-02T09:39:31;72961.94;;;-148.52;100.00
3254;BME280;1639;42.804;23.342;2024-03-02T09:41:57;72961.94;;;-148.52;100.00
3254;BME280;1639;42.804;23.342;2024-03-02T09:44:23;72957.81;;;-148.52;100.00
3254;BME280;1639;42.804;23.342;2024-03-02T09:46:50;72961.94;;;-148.52;100.00
3254;BME280;1639;42.804;23.342;2024-03-02T09:49:16;72968.16;;;-148.52;100.00
3254;BME280;1639;42.804;23.342;2024-03-02T09:51:47;72959.88;;;-148.52;100.00
3254;BME280;1639;42.804;23.342;2024-03-02T09:54:12;72959.88;;;-148.52;100.00
3254;BME280;1639;42.804;23.342;2024-03-02T09:56:38;72964.00;;;-148.52;100.00
3254;BME280;1639;42.804;23.342;2024-03-02T09:59:04;72961.94;;;-148.52;100.00
3254;BME280;1639;42.804;23.342;2024-03-02T10:01:30;72961.94;;;-148.52;100.00
3254;BME280;1639;42.804;23.342;2024-03-02T10:03:59;72964.00;;;-148.52;100.00
3254;BME280;1639;42.804;23.342;2024-03-02T10:06:26;72955.75;;;-148.52;100.00
3254;BME280;1639;42.804;23.342;2024-03-02T10:08:53;72953.66;;;-148.52;100.00
3254;BME280;1639;42.804;23.342;2024-03-02T10:11:34;72953.66;;;-148.52;100.00
3254;BME280;1639;42.804;23.342;2024-03-02T10:16:37;72935.06;;;-148.52;100.00
3254;BME280;1639;42.804;23.342;2024-03-02T10:19:20;72935.06;;;-148.52;100.00
3254;BME280;1639;42.804;23.342;2024-03-02T10:21:54;72918.50;;;-148.52;100.00
3254;BME280;1639;42.804;23.342;2024-03-02T10:24:21;72924.72;;;-148.52;100.00
3254;BME280;1639;42.804;23.342;2024-03-02T10:26:48;72959.88;;;-148.52;100.00
3254;BME280;1639;42.804;23.342;2024-03-02T10:29:13;72928.84;;;-148.52;100.00
3254;BME280;1639;42.804;23.342;2024-03-02T10:31:40;72914.38;;;-148.52;100.00
3254;BME280;1639;42.804;23.342;2024-03-02T10:34:07;72901.97;;;-148.52;100.00
3254;BME280;1639;42.804;23.342;2024-03-02T10:36:33;72904.03;;;-148.52;100.00
3254;BME280;1639;42.804;23.342;2024-03-02T10:39:02;72939.19;;;-148.52;100.00
3254;BME280;1639;42.804;23.342;2024-03-02T10:41:28;72953.66;;;-148.52;100.00
3254;BME280;1639;42.804;23.342;2024-03-02T10:43:54;72943.31;;;-148.52;100.00
3254;BME280;1639;42.804;23.342;2024-03-02T10:46:27;72901.97;;;-148.52;100.00
3254;BME280;1639;42.804;23.342;2024-03-02T10:48:56;72895.75;;;-148.52;100.00
3254;BME280;1639;42.804;23.342;2024-03-02T10:51:27;72924.72;;;-148.52;100.00
3254;BME280;1639;42.804;23.342;2024-03-02T10:53:54;72877.16;;;-148.52;100.00
3254;BME280;1639;42.804;23.342;2024-03-02T10:56:39;72935.06;;;-148.52;100.00
3254;BME280;1639;42.804;23.342;2024-03-02T11:01:42;72935.06;;;-148.52;100.00
3254;BME280;1639;42.804;23.342;2024-03-02T11:04:09;72897.81;;;-148.52;100.00
3254;BME280;1639;42.804;23.342;2024-03-02T11:06:36;72893.69;;;-148.52;100.00
3254;BME280;1639;42.804;23.342;2024-03-02T11:09:07;72897.81;;;-148.52;100.00
3254;BME280;1639;42.804;23.342;2024-03-02T11:11:38;72895.75;;;-148.52;100.00
3254;BME280;1639;42.804;23.342;2024-03-02T11:14:07;72897.81;;;-148.52;100.00
3254;BME280;1639;42.804;23.342;2024-03-02T11:16:37;72937.13;;;-148.52;100.00
3254;BME280;1639;42.804;23.342;2024-03-02T11:19:05;72891.63;;;-148.52;100.00
3254;BME280;1639;42.804;23.342;2024-03-02T11:21:35;72885.41;;;-148.52;100.00
3254;BME280;1639;42.804;23.342;2024-03-02T11:26:46;72873.00;;;-148.52;100.00
3254;BME280;1639;42.804;23.342;2024-03-02T11:32:04;72904.03;;;-148.52;100.00
3254;BME280;1639;42.804;23.342;2024-03-02T11:34:34;72881.28;;;-148.52;100.00
3254;BME280;1639;42.804;23.342;2024-03-02T11:37:03;72889.56;;;-148.52;100.00
3254;BME280;1639;42.804;23.342;2024-03-02T11:39:29;72881.28;;;-148.52;100.00
3254;BME280;1639;42.804;23.342;2024-03-02T11:41:56;72881.28;;;-148.52;100.00
3254;BME280;1639;42.804;23.342;2024-03-02T11:44:22;72885.41;;;-148.52;100.00
3254;BME280;1639;42.804;23.342;2024-03-02T11:47:00;72885.41;;;-148.52;100.00
3254;BME280;1639;42.804;23.342;2024-03-02T11:49:46;72893.69;;;-148.52;100.00
3254;BME280;1639;42.804;23.342;2024-03-02T11:52:14;72877.16;;;-148.52;100.00
3254;BME280;1639;42.804;23.342;2024-03-02T11:54:47;72866.81;;;-148.52;100.00
3254;BME280;1639;42.804;23.342;2024-03-02T11:57:19;72856.47;;;-148.52;100.00
3254;BME280;1639;42.804;23.342;2024-03-02T11:59:46;72862.66;;;-148.52;100.00
3254;BME280;1639;42.804;23.342;2024-03-02T12:02:16;72862.66;;;-148.52;100.00
3254;BME280;1639;42.804;23.342;2024-03-02T12:04:43;72856.47;;;-148.52;100.00
3254;BME280;1639;42.804;23.342;2024-03-02T12:07:08;72883.34;;;-148.52;100.00
3254;BME280;1639;42.804;23.342;2024-03-02T12:09:34;72881.28;;;-148.52;100.00
3254;BME280;1639;42.804;23.342;2024-03-02T12:12:04;72856.47;;;-148.52;100.00
3254;BME280;1639;42.804;23.342;2024-03-02T12:14:31;72860.59;;;-148.52;100.00
3254;BME280;1639;42.804;23.342;2024-03-02T12:16:56;72860.59;;;-148.52;100.00
3254;BME280;1639;42.804;23.342;2024-03-02T12:19:24;72860.59;;;-148.52;100.00
3254;BME280;1639;42.804;23.342;2024-03-02T12:21:49;72877.16;;;-148.52;100.00
3254;BME280;1639;42.804;23.342;2024-03-02T12:24:15;72844.06;;;-148.52;100.00
3254;BME280;1639;42.804;23.342;2024-03-02T12:26:41;72856.47;;;-148.52;100.00
3254;BME280;1639;42.804;23.342;2024-03-02T12:29:06;72875.06;;;-148.52;100.00
3254;BME280;1639;42.804;23.342;2024-03-02T12:31:32;72856.47;;;-148.52;100.00
3254;BME280;1639;42.804;23.342;2024-03-02T12:33:58;72829.56;;;-148.52;100.00
3254;BME280;1639;42.804;23.342;2024-03-02T12:36:24;72819.25;;;-148.52;100.00
3254;BME280;1639;42.804;23.342;2024-03-02T12:38:53;72823.38;;;-148.52;100.00
3254;BME280;1639;42.804;23.342;2024-03-02T12:41:18;72829.56;;;-148.52;100.00
3254;BME280;1639;42.804;23.342;2024-03-02T12:43:43;72821.31;;;-148.52;100.00
3254;BME280;1639;42.804;23.342;2024-03-02T12:46:10;72817.16;;;-148.52;100.00
3254;BME280;1639;42.804;23.342;2024-03-02T12:48:36;72794.41;;;-148.52;100.00
3254;BME280;1639;42.804;23.342;2024-03-02T12:51:02;72784.09;;;-148.52;100.00
3254;BME280;1639;42.804;23.342;2024-03-02T12:53:28;72765.47;;;-148.52;100.00